createdAt,value
2018-12-03T00:00:16.742Z,11.20
2018-12-03T00:02:45.366Z,11.20
2018-12-03T00:05:13.826Z,11.20
2018-12-03T00:07:42.303Z,11.20
2018-12-03T00:10:10.824Z,11.30
2018-12-03T00:12:39.297Z,11.20
2018-12-03T00:15:08.291Z,11.20
2018-12-03T00:17:36.766Z,11.20
2018-12-03T00:20:08.030Z,11.20
2018-12-03T00:22:36.547Z,11.20
2018-12-03T00:25:06.286Z,11.20
2018-12-03T00:27:34.777Z,11.20
2018-12-03T00:30:03.340Z,11.20
2018-12-03T00:32:31.860Z,11.20
2018-12-03T00:35:00.338Z,11.20
2018-12-03T00:37:28.895Z,11.20
2018-12-03T00:39:57.379Z,11.10
2018-12-03T00:42:25.864Z,11.10
2018-12-03T00:44:54.347Z,11.20
2018-12-03T00:47:22.828Z,11.20
2018-12-03T00:49:51.340Z,11.20
2018-12-03T00:52:19.817Z,11.20
2018-12-03T00:54:48.304Z,11.20
2018-12-03T00:57:16.774Z,11.20
2018-12-03T00:59:45.240Z,11.20
2018-12-03T01:02:19.123Z,11.20
2018-12-03T01:04:47.603Z,11.20
2018-12-03T01:07:16.174Z,11.20
2018-12-03T01:09:44.692Z,11.20
2018-12-03T01:12:13.184Z,11.10
2018-12-03T01:14:41.682Z,11.10
2018-12-03T01:17:10.171Z,11.10
2018-12-03T01:19:38.663Z,11.10
2018-12-03T01:22:07.191Z,11.10
2018-12-03T01:24:35.704Z,11.10
2018-12-03T01:27:04.240Z,11.10
2018-12-03T01:29:32.730Z,11.10
2018-12-03T01:32:01.202Z,11.10
2018-12-03T01:34:29.700Z,11.10
2018-12-03T01:36:58.164Z,11.10
2018-12-03T01:39:26.643Z,11.10
2018-12-03T01:41:55.137Z,11.00
2018-12-03T01:44:23.616Z,11.00
2018-12-03T01:46:52.167Z,11.00
2018-12-03T01:49:20.638Z,11.10
2018-12-03T01:51:49.131Z,11.00
2018-12-03T01:54:17.591Z,11.00
2018-12-03T01:56:46.088Z,11.00
2018-12-03T01:59:14.563Z,11.00
2018-12-03T02:01:43.047Z,11.00
2018-12-03T02:04:11.527Z,11.00
2018-12-03T02:06:40.012Z,11.00
2018-12-03T02:09:09.556Z,11.00
2018-12-03T02:11:38.051Z,11.00
2018-12-03T02:14:07.330Z,11.00
2018-12-03T02:16:35.810Z,11.00
2018-12-03T02:19:04.331Z,11.00
2018-12-03T02:21:32.795Z,10.90
2018-12-03T02:24:01.242Z,10.90
2018-12-03T02:26:29.712Z,10.90
2018-12-03T02:28:58.138Z,10.90
2018-12-03T02:31:26.594Z,10.80
2018-12-03T02:33:55.035Z,10.80
2018-12-03T02:36:23.492Z,10.80
2018-12-03T02:38:51.982Z,10.80
2018-12-03T02:41:20.419Z,10.70
2018-12-03T02:43:48.915Z,10.70
2018-12-03T02:46:17.343Z,10.70
2018-12-03T02:48:45.826Z,10.70
2018-12-03T02:51:14.261Z,10.70
2018-12-03T02:53:42.703Z,10.70
2018-12-03T02:56:11.190Z,10.60
2018-12-03T02:58:39.701Z,10.60
2018-12-03T03:01:08.126Z,10.60
2018-12-03T03:03:36.587Z,10.60
2018-12-03T03:06:05.126Z,10.60
2018-12-03T03:08:33.583Z,10.60
2018-12-03T03:11:02.025Z,10.60
2018-12-03T03:13:30.474Z,10.60
2018-12-03T03:15:58.907Z,10.60
2018-12-03T03:18:27.359Z,10.60
2018-12-03T03:20:55.850Z,10.60
2018-12-03T03:23:24.286Z,10.60
2018-12-03T03:25:52.714Z,10.60
2018-12-03T03:28:21.171Z,10.60
2018-12-03T03:30:49.635Z,10.60
2018-12-03T03:33:18.088Z,10.60
2018-12-03T03:35:46.535Z,10.60
2018-12-03T03:38:14.999Z,10.60
2018-12-03T03:40:43.432Z,10.60
2018-12-03T03:43:11.891Z,10.60
2018-12-03T03:45:40.327Z,10.60
2018-12-03T03:48:08.821Z,10.60
2018-12-03T03:50:37.251Z,10.60
2018-12-03T03:53:05.915Z,10.60
2018-12-03T03:55:34.566Z,10.60
2018-12-03T03:58:03.030Z,10.60
2018-12-03T04:00:31.454Z,10.60
2018-12-03T04:02:59.991Z,10.60
2018-12-03T04:05:28.448Z,10.60
2018-12-03T04:07:56.914Z,10.60
2018-12-03T04:10:25.404Z,10.60
2018-12-03T04:12:53.879Z,10.60
2018-12-03T04:15:22.344Z,10.60
2018-12-03T04:17:50.793Z,10.60
2018-12-03T04:20:20.290Z,10.50
2018-12-03T04:22:50.275Z,10.50
2018-12-03T04:25:18.774Z,10.50
2018-12-03T04:27:47.934Z,10.50
2018-12-03T04:30:17.786Z,10.50
2018-12-03T04:32:46.291Z,10.50
2018-12-03T04:35:15.075Z,10.50
2018-12-03T04:37:44.142Z,10.60
2018-12-03T04:40:14.683Z,10.60
2018-12-03T04:42:43.122Z,10.60
2018-12-03T04:45:13.797Z,10.60
2018-12-03T04:47:42.334Z,10.50
2018-12-03T04:50:13.904Z,10.50
2018-12-03T04:52:42.370Z,10.40
2018-12-03T04:55:11.345Z,10.40
2018-12-03T04:57:39.799Z,10.40
2018-12-03T05:00:10.585Z,10.40
2018-12-03T05:02:39.148Z,10.40
2018-12-03T05:05:08.315Z,10.40
2018-12-03T05:07:36.838Z,10.40
2018-12-03T05:10:08.388Z,10.50
2018-12-03T05:12:36.834Z,10.50
2018-12-03T05:15:07.180Z,10.50
2018-12-03T05:17:35.646Z,10.50
2018-12-03T05:20:04.436Z,10.50
2018-12-03T05:22:32.890Z,10.50
2018-12-03T05:25:01.361Z,10.50
2018-12-03T05:27:29.839Z,10.50
2018-12-03T05:29:58.336Z,10.60
2018-12-03T05:32:26.803Z,10.60
2018-12-03T05:34:55.296Z,10.60
2018-12-03T05:37:23.759Z,10.60
2018-12-03T05:39:52.260Z,10.60
2018-12-03T05:42:20.739Z,10.60
2018-12-03T05:44:49.231Z,10.60
2018-12-03T05:47:17.736Z,10.60
2018-12-03T05:49:46.291Z,10.60
2018-12-03T05:52:14.767Z,10.60
2018-12-03T05:54:43.275Z,10.60
2018-12-03T05:57:11.775Z,10.60
2018-12-03T05:59:40.250Z,10.60
2018-12-03T06:02:08.747Z,10.60
2018-12-03T06:04:37.219Z,10.50
2018-12-03T06:07:05.891Z,10.50
2018-12-03T06:09:34.371Z,10.50
2018-12-03T06:12:02.868Z,10.50
2018-12-03T06:14:31.359Z,10.50
2018-12-03T06:16:59.871Z,10.50
2018-12-03T06:19:28.344Z,10.50
2018-12-03T06:21:56.849Z,10.50
2018-12-03T06:24:25.327Z,10.60
2018-12-03T06:26:53.839Z,10.60
2018-12-03T06:29:22.330Z,10.60
2018-12-03T06:31:50.836Z,10.60
2018-12-03T06:34:19.328Z,10.60
2018-12-03T06:36:47.903Z,10.60
2018-12-03T06:39:16.377Z,10.50
2018-12-03T06:41:44.880Z,10.50
2018-12-03T06:44:13.351Z,10.50
2018-12-03T06:46:41.880Z,10.50
2018-12-03T06:49:10.340Z,10.50
2018-12-03T06:51:38.806Z,10.50
2018-12-03T06:54:07.259Z,10.50
2018-12-03T06:56:35.683Z,10.50
2018-12-03T06:59:04.129Z,10.50
2018-12-03T07:01:32.547Z,10.40
2018-12-03T07:04:00.990Z,10.40
2018-12-03T07:06:29.414Z,10.30
2018-12-03T07:08:57.951Z,10.30
2018-12-03T07:11:26.371Z,10.30
2018-12-03T07:13:54.806Z,10.20
2018-12-03T07:16:23.227Z,10.20
2018-12-03T07:18:51.695Z,10.20
2018-12-03T07:21:20.115Z,10.10
2018-12-03T07:23:48.567Z,10.10
2018-12-03T07:26:16.994Z,10.10
2018-12-03T07:28:45.443Z,10.10
2018-12-03T07:31:13.925Z,10.10
2018-12-03T07:33:42.372Z,10.20
2018-12-03T07:36:10.795Z,10.20
2018-12-03T07:38:39.274Z,10.20
2018-12-03T07:41:07.698Z,10.30
2018-12-03T07:43:36.158Z,10.30
2018-12-03T07:46:04.873Z,10.40
2018-12-03T07:48:33.342Z,10.40
2018-12-03T07:51:01.782Z,10.40
2018-12-03T07:53:30.239Z,10.50
2018-12-03T07:55:58.658Z,10.60
2018-12-03T07:58:27.114Z,10.60
2018-12-03T08:00:56.451Z,10.60
2018-12-03T08:03:25.019Z,10.60
2018-12-03T08:05:53.539Z,10.70
2018-12-03T08:08:21.991Z,10.70
2018-12-03T08:10:52.491Z,10.70
2018-12-03T08:13:21.204Z,10.70
2018-12-03T08:15:49.811Z,10.80
2018-12-03T08:18:19.850Z,10.80
2018-12-03T08:20:59.091Z,10.80
2018-12-03T08:23:33.422Z,10.90
2018-12-03T08:26:02.381Z,10.80
2018-12-03T08:28:30.842Z,10.80
2018-12-03T08:30:59.255Z,10.80
2018-12-03T08:33:27.703Z,10.80
2018-12-03T08:35:56.146Z,10.90
2018-12-03T08:38:24.624Z,10.90
2018-12-03T08:40:53.042Z,10.90
2018-12-03T08:43:21.474Z,10.90
2018-12-03T08:45:51.366Z,10.90
2018-12-03T08:48:19.820Z,10.90
2018-12-03T08:50:48.271Z,10.90
2018-12-03T08:53:16.685Z,10.90
2018-12-03T08:55:45.126Z,10.90
2018-12-03T08:58:15.507Z,11.00
2018-12-03T09:00:45.543Z,11.00
2018-12-03T09:03:17.410Z,11.00
2018-12-03T09:05:45.844Z,10.90
2018-12-03T09:08:14.291Z,11.00
2018-12-03T09:10:43.654Z,11.00
2018-12-03T09:13:17.206Z,11.00
2018-12-03T09:15:52.275Z,11.10
2018-12-03T09:18:20.755Z,11.10
2018-12-03T09:20:49.202Z,11.10
2018-12-03T09:23:17.621Z,11.10
2018-12-03T09:25:46.062Z,11.10
2018-12-03T09:28:14.477Z,11.00
2018-12-03T09:30:42.922Z,11.00
2018-12-03T09:33:11.362Z,11.00
2018-12-03T09:35:39.795Z,11.00
2018-12-03T09:38:08.238Z,11.00
2018-12-03T09:40:36.681Z,11.10
2018-12-03T09:43:05.321Z,11.10
2018-12-03T09:45:33.806Z,11.20
2018-12-03T09:48:02.910Z,11.40
2018-12-03T09:50:31.457Z,11.70
2018-12-03T09:52:59.986Z,11.80
2018-12-03T09:55:30.794Z,11.90
2018-12-03T09:58:15.951Z,12.20
2018-12-03T10:00:44.631Z,12.50
2018-12-03T10:03:19.850Z,12.60
2018-12-03T10:05:50.779Z,12.60
2018-12-03T10:08:24.338Z,12.90
2018-12-03T10:10:55.506Z,13.20
2018-12-03T10:13:24.450Z,13.10
2018-12-03T10:15:52.933Z,13.00
2018-12-03T10:18:21.371Z,12.90
2018-12-03T10:20:51.444Z,12.70
2018-12-03T10:23:19.949Z,12.60
2018-12-03T10:25:50.319Z,12.60
2018-12-03T10:28:18.822Z,12.60
2018-12-03T10:30:47.450Z,12.50
2018-12-03T10:33:20.703Z,12.50
2018-12-03T10:35:49.514Z,12.60
2018-12-03T10:38:21.991Z,12.50
2018-12-03T10:41:01.269Z,12.40
2018-12-03T10:43:29.727Z,12.30
2018-12-03T10:45:58.167Z,12.20
2018-12-03T10:48:26.645Z,12.10
2018-12-03T10:50:55.157Z,12.10
2018-12-03T10:53:25.002Z,12.00
2018-12-03T10:55:53.486Z,12.00
2018-12-03T10:58:21.993Z,12.00
2018-12-03T11:01:00.410Z,11.90
2018-12-03T11:03:34.244Z,11.90
2018-12-03T11:06:14.966Z,11.90
2018-12-03T11:08:43.505Z,12.00
2018-12-03T11:11:11.990Z,12.00
2018-12-03T11:13:40.516Z,12.00
2018-12-03T11:16:11.447Z,12.10
2018-12-03T11:18:46.414Z,12.30
2018-12-03T11:21:14.891Z,12.40
2018-12-03T11:23:43.538Z,12.40
2018-12-03T11:26:12.010Z,12.40
2018-12-03T11:28:44.075Z,12.40
2018-12-03T11:31:19.714Z,12.30
2018-12-03T11:33:48.322Z,12.20
2018-12-03T11:36:21.683Z,12.10
2018-12-03T11:40:02.759Z,12.00
2018-12-03T11:42:34.140Z,12.00
2018-12-03T11:45:02.598Z,11.80
2018-12-03T11:47:31.093Z,11.70
2018-12-03T11:49:59.547Z,11.60
2018-12-03T11:52:28.074Z,11.60
2018-12-03T11:54:56.568Z,11.60
2018-12-03T11:57:25.024Z,11.50
2018-12-03T11:59:53.610Z,11.40
2018-12-03T12:02:22.048Z,11.30
2018-12-03T12:04:50.506Z,11.20
2018-12-03T12:07:18.963Z,11.10
2018-12-03T12:09:47.423Z,11.10
2018-12-03T12:12:15.854Z,11.20
2018-12-03T12:14:44.354Z,11.20
2018-12-03T12:17:12.795Z,11.10
2018-12-03T12:19:41.327Z,11.20
2018-12-03T12:22:09.783Z,11.10
2018-12-03T12:24:38.267Z,11.10
2018-12-03T12:27:08.240Z,11.10
2018-12-03T12:29:36.723Z,11.00
2018-12-03T12:32:05.397Z,10.80
2018-12-03T12:34:33.858Z,10.70
2018-12-03T12:37:02.319Z,10.60
2018-12-03T12:39:30.816Z,10.50
2018-12-03T12:41:59.299Z,10.50
2018-12-03T12:44:27.820Z,10.40
2018-12-03T12:46:56.299Z,10.50
2018-12-03T12:49:24.767Z,10.50
2018-12-03T12:51:53.215Z,10.50
2018-12-03T12:54:21.690Z,10.60
2018-12-03T12:56:50.142Z,10.60
2018-12-03T12:59:18.579Z,10.70
2018-12-03T13:01:47.118Z,10.70
2018-12-03T13:04:15.659Z,10.90
2018-12-03T13:06:44.130Z,10.90
2018-12-03T13:09:12.572Z,11.00
2018-12-03T13:11:41.379Z,11.00
2018-12-03T13:14:11.737Z,11.00
2018-12-03T13:16:40.241Z,11.00
2018-12-03T13:19:09.434Z,11.00
2018-12-03T13:21:37.892Z,11.00
2018-12-03T13:24:06.754Z,10.90
2018-12-03T13:26:37.541Z,10.90
2018-12-03T13:29:06.637Z,10.90
2018-12-03T13:31:35.100Z,10.80
2018-12-03T13:34:03.602Z,10.90
2018-12-03T13:36:32.118Z,10.90
2018-12-03T13:39:00.558Z,10.90
2018-12-03T13:41:29.087Z,10.90
2018-12-03T13:43:57.571Z,10.90
2018-12-03T13:46:26.162Z,10.80
2018-12-03T13:48:54.702Z,10.80
2018-12-03T13:51:23.169Z,10.80
2018-12-03T13:53:51.695Z,10.80
2018-12-03T13:56:20.150Z,10.80
2018-12-03T13:58:48.592Z,10.80
2018-12-03T14:01:17.095Z,10.80
2018-12-03T14:03:45.540Z,10.80
2018-12-03T14:06:34.086Z,10.70
2018-12-03T14:09:09.922Z,10.70
2018-12-03T14:11:42.694Z,10.60
2018-12-03T14:15:30.123Z,10.60
2018-12-03T14:18:12.034Z,10.60
2018-12-03T14:20:43.039Z,10.50
2018-12-03T14:23:13.594Z,10.50
2018-12-03T14:25:42.034Z,10.40
2018-12-03T14:28:10.519Z,10.40
2018-12-03T14:30:38.980Z,10.30
2018-12-03T14:33:07.453Z,10.30
2018-12-03T14:35:35.914Z,10.30
2018-12-03T14:38:04.414Z,10.30
2018-12-03T14:40:32.874Z,10.40
2018-12-03T14:43:01.362Z,10.40
2018-12-03T14:45:29.838Z,10.30
2018-12-03T14:47:58.326Z,10.30
2018-12-03T14:50:26.785Z,10.20
2018-12-03T14:52:55.302Z,10.10
2018-12-03T14:55:23.769Z,10.10
2018-12-03T14:57:52.239Z,10.10
2018-12-03T15:00:20.724Z,10.10
2018-12-03T15:02:49.199Z,10.10
2018-12-03T15:05:17.668Z,10.00
2018-12-03T15:07:46.190Z,10.00
2018-12-03T15:10:14.671Z,10.00
2018-12-03T15:12:43.199Z,10.00
2018-12-03T15:15:11.960Z,9.90
2018-12-03T15:17:42.456Z,9.90
2018-12-03T15:20:10.919Z,9.90
2018-12-03T15:22:39.502Z,9.90
2018-12-03T15:25:10.222Z,9.80
2018-12-03T15:27:38.694Z,9.90
2018-12-03T15:30:08.873Z,9.80
2018-12-03T15:32:37.410Z,9.80
2018-12-03T15:35:07.771Z,9.80
2018-12-03T15:37:36.265Z,9.80
2018-12-03T15:40:08.394Z,9.80
2018-12-03T15:42:36.849Z,9.70
2018-12-03T15:45:07.661Z,9.70
2018-12-03T15:47:36.131Z,9.70
2018-12-03T15:50:05.454Z,9.60
2018-12-03T15:52:33.898Z,9.60
2018-12-03T15:55:02.440Z,9.50
2018-12-03T15:57:30.862Z,9.50
2018-12-03T15:59:59.298Z,9.50
2018-12-03T16:02:27.863Z,9.50
2018-12-03T16:04:56.286Z,9.50
2018-12-03T16:07:24.694Z,9.40
2018-12-03T16:09:53.142Z,9.40
2018-12-03T16:12:21.579Z,9.40
2018-12-03T16:14:50.044Z,9.40
2018-12-03T16:17:20.268Z,9.40
2018-12-03T16:19:46.999Z,9.40
2018-12-03T16:22:15.407Z,9.40
2018-12-03T16:24:43.863Z,9.40
2018-12-03T16:27:12.281Z,9.30
2018-12-03T16:29:40.727Z,9.30
2018-12-03T16:32:09.162Z,9.40
2018-12-03T16:34:37.597Z,9.40
2018-12-03T16:37:07.227Z,9.40
2018-12-03T16:39:34.505Z,9.40
2018-12-03T16:42:02.922Z,9.40
2018-12-03T16:44:31.426Z,9.40
2018-12-03T16:46:59.869Z,9.30
2018-12-03T16:49:28.320Z,9.40
2018-12-03T16:51:56.739Z,9.40
2018-12-03T16:54:25.159Z,9.40
2018-12-03T16:56:53.600Z,9.40
2018-12-03T16:59:22.101Z,9.40
2018-12-03T17:01:50.557Z,9.40
2018-12-03T17:04:18.978Z,9.40
2018-12-03T17:06:47.555Z,9.40
2018-12-03T17:09:16.062Z,9.40
2018-12-03T17:11:45.006Z,9.40
2018-12-03T17:14:13.418Z,9.40
2018-12-03T17:16:41.857Z,9.40
2018-12-03T17:19:10.345Z,9.40
2018-12-03T17:21:53.794Z,9.50
2018-12-03T17:24:26.443Z,9.50
2018-12-03T17:26:54.931Z,9.50
2018-12-03T17:29:23.340Z,9.50
2018-12-03T17:31:51.791Z,9.50
2018-12-03T17:34:20.240Z,9.50
2018-12-03T17:36:48.674Z,9.50
2018-12-03T17:39:17.081Z,9.50
2018-12-03T17:41:45.524Z,9.50
2018-12-03T17:44:13.950Z,9.50
2018-12-03T17:46:42.385Z,9.50
2018-12-03T17:49:10.847Z,9.50
2018-12-03T17:51:39.279Z,9.50
2018-12-03T17:54:07.697Z,9.60
2018-12-03T17:56:36.135Z,9.60
2018-12-03T17:59:04.566Z,9.60
2018-12-03T18:01:33.006Z,9.50
2018-12-03T18:04:01.424Z,9.50
2018-12-03T18:06:29.882Z,9.50
2018-12-03T18:08:58.655Z,9.50
2018-12-03T18:11:27.142Z,9.50
2018-12-03T18:13:55.567Z,9.50
2018-12-03T18:16:24.043Z,9.60
2018-12-03T18:18:52.456Z,9.50
2018-12-03T18:21:20.894Z,9.50
2018-12-03T18:23:49.326Z,9.50
2018-12-03T18:26:17.816Z,9.50
2018-12-03T18:28:46.254Z,9.40
2018-12-03T18:31:14.670Z,9.40
2018-12-03T18:33:43.097Z,9.40
2018-12-03T18:36:11.518Z,9.40
2018-12-03T18:38:39.962Z,9.40
2018-12-03T18:41:08.418Z,9.40
2018-12-03T18:43:36.954Z,9.40
2018-12-03T18:46:05.423Z,9.40
2018-12-03T18:48:34.226Z,9.40
2018-12-03T18:51:02.675Z,9.40
2018-12-03T18:53:31.614Z,9.50
2018-12-03T18:56:00.047Z,9.50
2018-12-03T18:58:35.280Z,9.50
2018-12-03T19:01:02.769Z,9.50
2018-12-03T19:03:31.273Z,9.50
2018-12-03T19:05:59.710Z,9.50
2018-12-03T19:08:28.146Z,9.50
2018-12-03T19:10:56.554Z,9.50
2018-12-03T19:13:24.989Z,9.50
2018-12-03T19:15:53.394Z,9.40
2018-12-03T19:18:21.831Z,9.40
2018-12-03T19:20:50.249Z,9.40
2018-12-03T19:23:18.694Z,9.40
2018-12-03T19:25:47.118Z,9.40
2018-12-03T19:28:15.586Z,9.40
2018-12-03T19:30:43.998Z,9.40
2018-12-03T19:33:12.439Z,9.40
2018-12-03T19:35:40.873Z,9.40
2018-12-03T19:38:09.295Z,9.40
2018-12-03T19:40:37.718Z,9.40
2018-12-03T19:43:06.140Z,9.40
2018-12-03T19:45:34.566Z,9.50
2018-12-03T19:48:03.030Z,9.50
2018-12-03T19:50:31.483Z,9.50
2018-12-03T19:52:59.968Z,9.40
2018-12-03T19:55:29.091Z,9.40
2018-12-03T19:58:34.751Z,9.40
2018-12-03T20:01:03.275Z,9.40
2018-12-03T20:03:31.754Z,9.40
2018-12-03T20:06:00.213Z,9.30
2018-12-03T20:08:28.654Z,9.40
2018-12-03T20:10:57.225Z,9.40
2018-12-03T20:13:25.669Z,9.40
2018-12-03T20:15:54.191Z,9.40
2018-12-03T20:18:22.606Z,9.40
2018-12-03T20:21:02.043Z,9.40
2018-12-03T20:23:34.718Z,9.40
2018-12-03T20:26:06.751Z,9.40
2018-12-03T20:29:16.036Z,9.40
2018-12-03T20:32:13.722Z,9.40
2018-12-03T20:34:48.015Z,9.40
2018-12-03T20:39:31.121Z,9.30
2018-12-03T20:42:02.627Z,9.30
2018-12-03T20:44:40.941Z,9.30
2018-12-03T20:47:20.154Z,9.30
2018-12-03T20:50:26.806Z,9.30
2018-12-03T20:52:55.246Z,9.30
2018-12-03T20:55:28.199Z,9.30
2018-12-03T20:57:56.658Z,9.30
2018-12-03T21:00:25.182Z,9.30
2018-12-03T21:02:57.316Z,9.30
2018-12-03T21:05:25.766Z,9.30
2018-12-03T21:07:54.214Z,9.30
2018-12-03T21:10:22.663Z,9.30
2018-12-03T21:12:51.231Z,9.30
2018-12-03T21:15:19.763Z,9.30
2018-12-03T21:17:48.370Z,9.30
2018-12-03T21:20:20.381Z,9.30
2018-12-03T21:22:48.842Z,9.20
2018-12-03T21:25:17.283Z,9.20
2018-12-03T21:27:45.757Z,9.20
2018-12-03T21:30:14.238Z,9.20
2018-12-03T21:32:42.694Z,9.20
2018-12-03T21:35:11.151Z,9.20
2018-12-03T21:37:39.618Z,9.20
2018-12-03T21:40:08.887Z,9.30
2018-12-03T21:42:37.346Z,9.30
2018-12-03T21:45:06.455Z,9.30
2018-12-03T21:47:34.934Z,9.30
2018-12-03T21:50:05.230Z,9.30
2018-12-03T21:52:31.930Z,9.30
2018-12-03T21:55:00.370Z,9.30
2018-12-03T21:57:28.811Z,9.30
2018-12-03T21:59:57.240Z,9.30
2018-12-03T22:02:25.699Z,9.30
2018-12-03T22:04:54.117Z,9.30
2018-12-03T22:07:22.587Z,9.30
2018-12-03T22:09:51.043Z,9.30
2018-12-03T22:12:19.482Z,9.40
2018-12-03T22:14:47.891Z,9.30
2018-12-03T22:17:16.341Z,9.40
2018-12-03T22:19:44.766Z,9.40
2018-12-03T22:22:13.215Z,9.40
2018-12-03T22:24:41.691Z,9.40
2018-12-03T22:27:10.182Z,9.40
2018-12-03T22:29:38.595Z,9.40
2018-12-03T22:32:07.063Z,9.50
2018-12-03T22:34:35.483Z,9.50
2018-12-03T22:37:03.948Z,9.50
2018-12-03T22:39:32.374Z,9.50
2018-12-03T22:42:00.818Z,9.60
2018-12-03T22:44:29.286Z,9.60
2018-12-03T22:46:57.697Z,9.60
2018-12-03T22:49:26.152Z,9.60
2018-12-03T22:51:54.596Z,9.60
2018-12-03T22:54:23.050Z,9.60
2018-12-03T22:56:51.466Z,9.50
2018-12-03T22:59:19.898Z,9.50
2018-12-03T23:01:48.347Z,9.50
2018-12-03T23:04:16.773Z,9.50
2018-12-03T23:06:45.201Z,9.50
2018-12-03T23:09:13.754Z,9.50
2018-12-03T23:11:42.175Z,9.40
2018-12-03T23:14:10.618Z,9.50
2018-12-03T23:16:39.070Z,9.50
2018-12-03T23:19:07.587Z,9.50
2018-12-03T23:21:36.010Z,9.50
2018-12-03T23:24:04.470Z,9.50
2018-12-03T23:26:32.927Z,9.50
2018-12-03T23:29:01.362Z,9.50
2018-12-03T23:31:29.779Z,9.60
2018-12-03T23:33:58.215Z,9.60
2018-12-03T23:36:26.623Z,9.60
2018-12-03T23:38:55.059Z,9.60
2018-12-03T23:41:23.470Z,9.60
2018-12-03T23:43:51.922Z,9.60
2018-12-03T23:46:20.330Z,9.60
2018-12-03T23:48:48.804Z,9.60
2018-12-03T23:51:17.259Z,9.60
2018-12-03T23:53:45.727Z,9.60
2018-12-03T23:56:14.170Z,9.70
2018-12-03T23:58:42.594Z,9.70
